Statesboro, GA

6:33 AM EST on December 04, 2016 (GMT -0500)
Savannah Avenue | | Change Station

Elev 253 ft 32.44 °N, 81.78 °W | Updated 6 seconds ago

Overcast
Overcast
50.7 °F
Feels Like 50.7 °F
N
0.0
Wind Variable Wind from SE
Gusts 0.0 mph

Today
High -- | Low -- °F
--% Chance of Precip.
Yesterday
High -- | Low -- °F
Precip. -- in
Pressure 30.17 in
Visibility 10.0 miles
Clouds Overcast 3700 ft
Dew Point 42 °F
Humidity 71%
Rainfall 0.00 in
Snow Depth Not available.
7:13 AM 5:21 PM
Waxing Crescent, 22% visible
METAR KTBR 041115Z AUTO 07003KT 10SM OVC037 11/06 A3017 RMK AO2 T01060058
Pressure 30.17 in
Visibility 10.0 miles
Clouds Overcast 3700 ft
Dew Point 42 °F
Humidity 71%
Rainfall 0.00 in
Snow Depth Not available.
7:13 AM 5:21 PM
Waxing Crescent, 22% visible
METAR KTBR 041115Z AUTO 07003KT 10SM OVC037 11/06 A3017 RMK AO2 T01060058

10-Day Weather Forecast

Almanac

Astronomy

Dec. 04, 2016 Rise Set
Actual Time
Civil Twilight
Nautical Twilight
Astronomical Twilight
Moon
Length of Visible Light
Length of Day
Tomorrow will be .
, % of the Moon is Illuminated

Today's Extremes

State Highs State Lows

Community

WunderPhotos

Upload Photos

1,955,593 photos uploaded!

WunderBlog® & News

Nearby

Air Quality

  Air Quality AQ Index Pollutant
Not available.

Snow Depth

Station Depth Elevation

Earthquake Activity

City Distance Mag. Time & Date
Minimum magnitude displayed is 2.5.

Coastal Water Temperatures

Place Temperature

Stations

Nearby Weather Stations

Station Location Temp. Windchill Dew Point Humidity Wind Precip. Elev Updated Type
                   

Watches & Warnings

There are currently no watches in effect.